Time;durP1;ratioP1;P1;durP2;ratioP2;P2;SDS_P1;SDS_P2;PMS_P1;PMS_P2;Temp;Humidity;BMP_temperature;BMP_pressure;BME280_temperature;BME280_humidity;BME280_pressure;Samples;Min_cycle;Max_cycle;Signal;HPM_P1;HPM_P2
2021/08/29 00:01:51;;;;;;;4.25;3.12;;;;;;;18.83;63.29;99601.69;4490118;31;34089;-83
2021/08/29 00:04:20;;;;;;;4.12;3.00;;;;;;;18.87;63.23;99605.81;4494297;31;33909;-83
2021/08/29 00:06:47;;;;;;;4.85;2.95;;;;;;;18.89;63.25;99607.38;4478879;31;33439;-82
2021/08/29 00:09:15;;;;;;;6.47;3.30;;;;;;;18.88;63.29;99602.16;4480910;31;34329;-82
2021/08/29 00:11:43;;;;;;;5.78;4.05;;;;;;;18.98;62.95;99603.13;4479626;31;33562;-83
2021/08/29 00:14:10;;;;;;;4.45;3.15;;;;;;;18.82;62.80;99606.19;4481957;31;34598;-82
2021/08/29 00:16:38;;;;;;;3.20;2.90;;;;;;;18.78;63.11;99598.53;4466366;31;32708;-83
2021/08/29 00:19:06;;;;;;;3.40;2.72;;;;;;;18.92;62.66;99595.59;4493432;31;34647;-83
2021/08/29 00:21:33;;;;;;;3.83;2.80;;;;;;;18.84;62.98;99588.19;4480677;31;33452;-84
2021/08/29 00:24:01;;;;;;;4.03;3.03;;;;;;;18.86;63.02;99585.41;4491396;31;34759;-82
2021/08/29 00:26:29;;;;;;;5.45;3.40;;;;;;;18.75;63.47;99582.72;4463879;31;33956;-82
2021/08/29 00:29:10;;;;;;;4.10;3.25;;;;;;;18.62;63.91;99578.38;4489190;31;33567;-82
2021/08/29 00:31:38;;;;;;;3.95;3.30;;;;;;;18.82;63.35;99573.25;4490049;31;33287;-83
2021/08/29 00:34:05;;;;;;;3.72;3.28;;;;;;;18.83;63.20;99580.28;4492756;31;33924;-82
2021/08/29 00:36:33;;;;;;;3.40;2.85;;;;;;;18.73;63.65;99568.66;4479326;31;33559;-83
2021/08/29 00:39:02;;;;;;;4.85;3.10;;;;;;;18.67;63.75;99559.28;4492497;31;34566;-83
2021/08/29 00:41:29;;;;;;;2.97;2.62;;;;;;;18.74;63.54;99554.28;4494158;31;34114;-83
2021/08/29 00:43:57;;;;;;;4.95;2.95;;;;;;;18.81;63.15;99552.84;4479774;31;33695;-83
2021/08/29 00:46:25;;;;;;;3.75;3.03;;;;;;;18.83;62.86;99553.53;4478775;31;33093;-83
2021/08/29 00:48:53;;;;;;;4.32;3.00;;;;;;;18.66;63.26;99550.41;4460767;32;32852;-83
2021/08/29 00:51:21;;;;;;;4.43;3.20;;;;;;;18.67;63.12;99549.41;4478428;31;32937;-82
2021/08/29 00:53:53;;;;;;;4.95;3.72;;;;;;;18.64;63.21;99560.34;4478297;31;34230;-83
2021/08/29 00:56:23;;;;;;;6.78;3.42;;;;;;;18.54;63.56;99559.41;4492408;31;33996;-83
2021/08/29 00:58:52;;;;;;;3.85;3.20;;;;;;;18.62;63.27;99554.28;4481212;31;33970;-83
2021/08/29 01:01:22;;;;;;;4.40;3.28;;;;;;;18.54;63.48;99547.84;4473967;31;33744;-83
2021/08/29 01:03:55;;;;;;;3.33;2.70;;;;;;;18.47;63.68;99557.34;4490397;31;33899;-83
2021/08/29 01:06:45;;;;;;;4.50;3.67;;;;;;;18.42;64.03;99552.37;4480697;31;34182;-84
2021/08/29 01:09:16;;;;;;;5.12;3.42;;;;;;;18.46;64.07;99545.78;4491443;31;33864;-85
2021/08/29 01:11:47;;;;;;;4.75;3.35;;;;;;;18.54;63.61;99546.03;4487035;31;33469;-84
2021/08/29 01:14:21;;;;;;;4.57;3.00;;;;;;;18.40;64.03;99548.97;4478611;31;33074;-84
2021/08/29 01:16:51;;;;;;;6.68;3.00;;;;;;;18.56;63.58;99541.44;4493427;31;33550;-84
2021/08/29 01:19:22;;;;;;;4.37;3.12;;;;;;;18.57;63.39;99547.62;4476944;31;33642;-83
2021/08/29 01:21:50;;;;;;;6.15;2.95;;;;;;;18.44;63.88;99542.41;4479868;31;33450;-83
2021/08/29 01:24:19;;;;;;;4.07;3.45;;;;;;;18.40;63.98;99540.94;4467965;31;33155;-83
2021/08/29 01:26:55;;;;;;;3.80;3.40;;;;;;;18.16;65.00;99544.59;4491648;31;33014;-83
2021/08/29 01:29:26;;;;;;;4.70;3.22;;;;;;;18.26;64.59;99543.87;4453158;31;35811;-83
2021/08/29 01:31:55;;;;;;;5.90;3.75;;;;;;;18.44;63.90;99542.41;4478289;31;35299;-82
2021/08/29 01:34:23;;;;;;;3.97;3.50;;;;;;;18.43;63.86;99538.03;4465743;31;33248;-82
2021/08/29 01:36:55;;;;;;;4.53;3.53;;;;;;;18.39;63.92;99544.59;4492267;31;34068;-82
2021/08/29 01:39:23;;;;;;;5.80;3.60;;;;;;;18.23;64.39;99539.62;4478703;31;34675;-83
2021/08/29 01:41:52;;;;;;;4.20;3.30;;;;;;;18.33;64.03;99539.75;4479018;31;34520;-82
2021/08/29 01:44:21;;;;;;;4.28;3.45;;;;;;;18.31;64.08;99541.69;4478393;31;34842;-83
2021/08/29 01:46:50;;;;;;;4.90;3.35;;;;;;;18.30;63.80;99532.81;4478261;31;33435;-82
2021/08/29 01:49:18;;;;;;;4.53;3.70;;;;;;;18.34;63.65;99525.41;4466728;31;33218;-82
2021/08/29 01:51:46;;;;;;;9.45;4.10;;;;;;;18.34;63.38;99530.75;4480634;31;33473;-82
2021/08/29 01:54:14;;;;;;;3.67;3.25;;;;;;;18.25;63.49;99536.84;4476634;31;33167;-82
2021/08/29 01:56:58;;;;;;;5.20;3.50;;;;;;;18.20;63.66;99539.03;4491966;31;33506;-82
2021/08/29 01:59:26;;;;;;;3.90;3.50;;;;;;;18.11;63.21;99536.09;4491637;31;34458;-82
2021/08/29 02:01:55;;;;;;;3.75;2.90;;;;;;;18.33;62.25;99529.06;4465124;31;34861;-83
2021/08/29 02:04:25;;;;;;;4.90;3.20;;;;;;;18.25;62.54;99528.81;4490670;31;34789;-83
2021/08/29 02:07:06;;;;;;;4.47;3.55;;;;;;;18.21;62.47;99524.69;4491897;31;32619;-83
2021/08/29 02:09:37;;;;;;;3.10;2.80;;;;;;;18.17;62.13;99532.94;4493863;31;33518;-85
2021/08/29 02:12:07;;;;;;;3.35;2.50;;;;;;;18.22;61.84;99526.38;4497969;31;33429;-84
2021/08/29 02:14:43;;;;;;;5.70;3.28;;;;;;;18.25;61.60;99528.81;4462379;32;33818;-85
2021/08/29 02:17:12;;;;;;;4.70;3.42;;;;;;;18.15;61.80;99521.53;4477273;31;33068;-84
2021/08/29 02:19:41;;;;;;;3.70;2.60;;;;;;;18.26;61.20;99511.81;4488892;31;33620;-83
2021/08/29 02:22:10;;;;;;;5.25;3.08;;;;;;;18.11;60.91;99514.72;4492373;31;33665;-83
2021/08/29 02:24:38;;;;;;;4.93;3.45;;;;;;;18.21;60.49;99500.63;4493226;31;34443;-82
2021/08/29 02:27:11;;;;;;;3.92;3.35;;;;;;;18.09;60.23;99503.31;4480256;31;33932;-83
2021/08/29 02:29:40;;;;;;;2.78;2.50;;;;;;;18.08;60.29;99490.91;4478582;31;34619;-83
2021/08/29 02:32:10;;;;;;;4.22;3.17;;;;;;;17.97;60.69;99487.41;4489023;31;33955;-83
2021/08/29 02:34:39;;;;;;;4.37;3.30;;;;;;;17.86;60.75;99491.78;4480991;31;34614;-82
2021/08/29 02:37:08;;;;;;;4.40;2.40;;;;;;;17.89;60.47;99485.34;4490761;31;34439;-82
2021/08/29 02:39:38;;;;;;;5.85;3.00;;;;;;;17.81;60.59;99493.13;4492562;31;33832;-82
2021/08/29 02:42:07;;;;;;;9.48;2.72;;;;;;;17.84;60.37;99492.84;4480288;31;33100;-82
2021/08/29 02:44:38;;;;;;;5.87;3.17;;;;;;;17.81;60.32;99483.28;4489528;31;34715;-81
2021/08/29 02:47:07;;;;;;;3.47;2.62;;;;;;;17.81;60.27;99487.78;4478612;31;34786;-82
2021/08/29 02:49:37;;;;;;;3.40;2.28;;;;;;;17.88;59.95;99486.31;4474464;32;33050;-82
2021/08/29 02:52:05;;;;;;;4.15;2.75;;;;;;;17.68;60.55;99479.84;4482365;31;33643;-81
2021/08/29 02:54:34;;;;;;;4.10;2.90;;;;;;;17.60;60.59;99475.06;4462235;31;33100;-82
2021/08/29 02:57:03;;;;;;;3.55;2.62;;;;;;;17.80;59.84;99467.34;4488827;31;33302;-83
2021/08/29 02:59:31;;;;;;;3.33;2.55;;;;;;;17.64;nan;99483.72;4477520;31;33931;-84
2021/08/29 03:01:59;;;;;;;3.70;2.45;;;;;;;17.51;60.61;99473.13;4478956;31;34016;-83
2021/08/29 03:04:28;;;;;;;4.20;2.35;;;;;;;17.46;60.79;99477.97;4478829;31;33106;-84
2021/08/29 03:06:57;;;;;;;2.75;2.47;;;;;;;17.24;61.63;99475.28;4463492;31;33980;-84
2021/08/29 03:09:25;;;;;;;4.62;2.92;;;;;;;17.32;61.76;99470.19;4489210;31;34345;-84
2021/08/29 03:11:53;;;;;;;3.45;2.72;;;;;;;17.24;61.68;99465.44;4479560;31;34152;-82
2021/08/29 03:14:22;;;;;;;7.60;2.75;;;;;;;17.40;61.09;99454.44;4464233;31;33170;-83
2021/08/29 03:16:50;;;;;;;6.12;3.03;;;;;;;17.34;60.86;99463.78;4479271;32;32930;-84
2021/08/29 03:19:19;;;;;;;5.20;3.25;;;;;;;17.28;60.85;99466.91;4492382;31;33598;-85
2021/08/29 03:21:47;;;;;;;5.25;3.75;;;;;;;17.27;60.70;99470.53;4490328;31;33800;-85
2021/08/29 03:24:15;;;;;;;4.70;3.45;;;;;;;17.24;60.91;99464.59;4488634;31;34550;-84
2021/08/29 03:26:43;;;;;;;6.87;4.25;;;;;;;17.01;61.68;99464.53;4493557;31;33368;-84
2021/08/29 03:29:12;;;;;;;5.10;3.80;;;;;;;17.15;61.08;99467.00;4494956;31;33912;-84
2021/08/29 03:31:41;;;;;;;4.70;3.33;;;;;;;17.23;60.76;99469.06;4490612;31;34528;-84
2021/08/29 03:34:12;;;;;;;4.87;3.58;;;;;;;17.20;60.93;99473.81;4490397;31;33170;-84
2021/08/29 03:36:44;;;;;;;4.20;3.70;;;;;;;16.89;61.88;99482.28;4475975;32;32362;-84
2021/08/29 03:39:12;;;;;;;;;;;;;;;16.71;62.49;99480.09;4481418;31;33143;-84
2021/08/29 03:41:43;;;;;;;7.50;4.60;;;;;;;16.83;62.08;99485.41;4482347;32;33954;-85
2021/08/29 03:44:14;;;;;;;5.47;3.78;;;;;;;16.85;62.05;99488.84;4482170;31;33082;-83
2021/08/29 03:46:42;;;;;;;5.35;3.75;;;;;;;16.86;62.04;99490.53;4476278;31;33999;-83
2021/08/29 03:49:11;;;;;;;8.40;4.22;;;;;;;16.88;62.27;99493.91;4486686;31;34863;-83
2021/08/29 03:51:41;;;;;;;6.82;4.30;;;;;;;17.10;61.53;99495.84;4481930;31;33490;-83
2021/08/29 03:54:11;;;;;;;5.35;3.83;;;;;;;17.02;61.56;99482.22;4477252;31;34453;-83
2021/08/29 03:56:40;;;;;;;4.35;3.62;;;;;;;16.60;63.05;99481.75;4472345;31;32252;-82
2021/08/29 03:59:07;;;;;;;3.92;3.53;;;;;;;16.72;62.71;99485.38;4487392;31;32868;-83
2021/08/29 04:01:36;;;;;;;6.90;4.35;;;;;;;16.90;62.22;99472.47;4489988;31;33653;-83
2021/08/29 04:04:05;;;;;;;5.32;3.60;;;;;;;16.89;62.27;99476.09;4496802;31;32604;-83
2021/08/29 04:06:33;;;;;;;6.10;3.30;;;;;;;16.75;62.63;99468.28;4464869;31;33858;-83
2021/08/29 04:09:05;;;;;;;5.35;3.25;;;;;;;16.77;62.51;99467.22;4473207;31;34703;-83
2021/08/29 04:11:34;;;;;;;10.18;4.20;;;;;;;16.64;63.17;99463.72;4466134;31;34328;-83
2021/08/29 04:14:04;;;;;;;7.30;4.35;;;;;;;16.24;64.75;99455.16;4479386;31;33819;-83
2021/08/29 04:16:34;;;;;;;7.05;4.18;;;;;;;16.26;64.87;99456.72;4488276;31;33077;-83
2021/08/29 04:19:03;;;;;;;4.60;4.05;;;;;;;16.19;65.09;99458.16;4478055;31;34562;-84
2021/08/29 04:21:31;;;;;;;6.43;4.22;;;;;;;16.47;63.65;99456.09;4475641;31;33120;-84
2021/08/29 04:24:00;;;;;;;5.78;3.65;;;;;;;16.33;63.99;99451.78;4489204;31;33604;-84
2021/08/29 04:26:29;;;;;;;8.45;3.97;;;;;;;16.26;64.24;99461.19;4490601;31;33187;-84
2021/08/29 04:28:57;;;;;;;7.10;4.00;;;;;;;16.10;64.99;99457.00;4490533;31;34777;-84
2021/08/29 04:31:30;;;;;;;5.30;3.35;;;;;;;16.03;65.08;99461.03;4476958;31;34456;-85
2021/08/29 04:34:07;;;;;;;6.75;4.00;;;;;;;16.05;65.05;99459.13;4477656;31;33961;-84
2021/08/29 04:36:37;;;;;;;6.85;3.62;;;;;;;16.18;64.73;99464.41;4486303;31;34434;-84
2021/08/29 04:39:07;;;;;;;5.43;3.78;;;;;;;16.08;65.35;99464.22;4489322;31;33831;-83
2021/08/29 04:41:37;;;;;;;5.43;4.03;;;;;;;16.18;64.77;99453.75;4476932;31;33314;-82
2021/08/29 04:44:11;;;;;;;5.72;3.28;;;;;;;16.18;64.80;99459.09;4478698;31;34532;-82
2021/08/29 04:46:39;;;;;;;6.50;3.90;;;;;;;16.32;64.34;99455.41;4475103;31;34188;-83
2021/08/29 04:49:08;;;;;;;5.62;4.00;;;;;;;16.32;64.42;99458.09;4479326;31;34048;-83
2021/08/29 04:51:37;;;;;;;4.50;3.37;;;;;;;16.38;63.96;99453.19;4477605;31;34426;-83
2021/08/29 04:54:05;;;;;;;6.40;4.03;;;;;;;16.39;64.07;99449.53;4482549;31;33582;-83
2021/08/29 04:56:33;;;;;;;4.87;3.65;;;;;;;16.43;63.96;99458.16;4490600;31;33446;-82
2021/08/29 04:59:00;;;;;;;5.68;3.53;;;;;;;16.59;63.58;99456.06;4489181;31;33508;-82
2021/08/29 05:01:31;;;;;;;7.55;3.45;;;;;;;16.50;63.83;99462.06;4476473;32;32958;-82
2021/08/29 05:03:59;;;;;;;3.53;3.22;;;;;;;16.65;63.64;99462.75;4469582;31;32686;-82
2021/08/29 05:06:27;;;;;;;7.78;3.25;;;;;;;16.50;64.37;99469.22;4478125;31;33167;-82
2021/08/29 05:08:55;;;;;;;5.53;3.87;;;;;;;16.61;63.96;99470.13;4479081;31;32169;-82
2021/08/29 05:11:24;;;;;;;4.35;3.95;;;;;;;16.79;63.83;99459.94;4479457;31;33133;-82
2021/08/29 05:13:52;;;;;;;4.80;3.05;;;;;;;16.81;63.69;99470.50;4494086;31;33503;-82
2021/08/29 05:16:20;;;;;;;4.35;3.50;;;;;;;16.79;64.27;99469.75;4467199;31;33636;-82
2021/08/29 05:18:48;;;;;;;3.67;2.92;;;;;;;17.15;63.34;99463.47;4494389;31;33118;-83
2021/08/29 05:21:16;;;;;;;5.97;3.58;;;;;;;17.00;63.54;99461.97;4466216;31;34311;-82
2021/08/29 05:23:58;;;;;;;4.18;2.97;;;;;;;17.04;64.07;99461.63;4492728;31;33545;-82
2021/08/29 05:26:25;;;;;;;6.62;3.90;;;;;;;16.92;63.95;99457.22;4470831;31;30823;-82
2021/08/29 05:28:54;;;;;;;4.97;3.90;;;;;;;17.01;64.50;99464.53;4492376;31;33807;-83
2021/08/29 05:31:22;;;;;;;8.27;4.05;;;;;;;17.18;63.53;99454.38;4494420;31;34003;-82
2021/08/29 05:33:50;;;;;;;5.15;3.62;;;;;;;17.02;63.77;99462.69;4494124;31;33760;-82
2021/08/29 05:36:18;;;;;;;6.20;4.78;;;;;;;17.26;63.39;99459.97;4478834;31;32289;-82
2021/08/29 05:38:46;;;;;;;5.30;4.00;;;;;;;17.35;62.85;99459.28;4479708;31;33834;-83
2021/08/29 05:41:19;;;;;;;6.72;4.47;;;;;;;17.29;63.19;99473.09;4492634;31;33725;-83
2021/08/29 05:43:49;;;;;;;4.85;4.32;;;;;;;17.35;63.33;99472.63;4477166;31;34005;-84
2021/08/29 05:46:17;;;;;;;7.00;4.60;;;;;;;17.70;62.81;99461.00;4493145;31;33364;-82
2021/08/29 05:48:47;;;;;;;5.95;4.55;;;;;;;17.55;62.43;99457.72;4464906;31;34128;-83
2021/08/29 05:51:15;;;;;;;7.05;4.20;;;;;;;17.53;62.70;99462.34;4477862;31;33435;-83
2021/08/29 05:53:42;;;;;;;6.57;3.83;;;;;;;17.58;62.85;99462.84;4490639;31;34435;-83
2021/08/29 05:56:12;;;;;;;4.90;4.10;;;;;;;17.80;61.65;99451.34;4464502;31;32696;-82
2021/08/29 05:58:40;;;;;;;5.18;4.03;;;;;;;18.03;61.08;99457.53;4494658;31;34605;-83
2021/08/29 06:01:15;;;;;;;8.57;4.78;;;;;;;18.23;61.03;99448.78;4480310;31;34395;-83
2021/08/29 06:03:44;;;;;;;7.60;4.03;;;;;;;18.33;60.46;99455.06;4480258;31;33625;-83
2021/08/29 06:06:13;;;;;;;5.47;4.25;;;;;;;18.15;61.39;99446.72;4474694;31;32743;-83
2021/08/29 06:08:41;;;;;;;5.95;3.47;;;;;;;18.15;60.62;99446.72;4465953;31;33068;-84
2021/08/29 06:11:09;;;;;;;4.15;3.75;;;;;;;18.23;61.05;99451.44;4490848;31;33998;-82
2021/08/29 06:13:36;;;;;;;4.97;4.03;;;;;;;18.37;60.73;99444.94;4469744;31;31997;-82
2021/08/29 06:16:04;;;;;;;4.37;3.40;;;;;;;18.61;59.80;99450.09;4490806;31;34349;-82
2021/08/29 06:18:32;;;;;;;6.50;3.70;;;;;;;18.59;60.64;99439.56;4481040;31;34617;-82
2021/08/29 06:21:00;;;;;;;6.03;3.80;;;;;;;18.80;59.36;99436.97;4466910;31;33059;-83
2021/08/29 06:23:27;;;;;;;4.40;3.60;;;;;;;18.68;59.80;99422.78;4480336;31;33563;-85
2021/08/29 06:25:59;;;;;;;4.85;3.78;;;;;;;18.91;59.30;99434.22;4478006;31;33460;-85
2021/08/29 06:28:28;;;;;;;5.12;3.72;;;;;;;18.78;59.16;99427.38;4477938;31;33599;-85
2021/08/29 06:30:58;;;;;;;4.28;3.65;;;;;;;19.27;58.85;99424.03;4496070;31;32020;-87
2021/08/29 06:33:52;;;;;;;3.97;3.33;;;;;;;19.57;57.39;99420.56;4484814;31;32755;-85
2021/08/29 06:36:23;;;;;;;5.97;3.45;;;;;;;19.68;57.95;99416.97;4484566;31;32820;-84
2021/08/29 06:38:51;;;;;;;7.00;2.97;;;;;;;19.54;57.38;99420.81;4486910;31;34650;-85
2021/08/29 06:41:19;;;;;;;4.15;3.12;;;;;;;19.22;59.34;99425.44;4477181;31;33628;-85
2021/08/29 06:43:48;;;;;;;3.47;3.10;;;;;;;19.55;57.28;99417.16;4460992;31;33131;-83
2021/08/29 06:46:30;;;;;;;4.60;3.17;;;;;;;19.64;56.70;99421.75;4491333;31;33437;-83
2021/08/29 06:49:02;;;;;;;4.32;3.22;;;;;;;19.72;56.93;99428.28;4477391;31;34078;-83
2021/08/29 06:51:36;;;;;;;4.12;3.03;;;;;;;20.07;56.50;99428.69;4489381;31;32834;-83
2021/08/29 06:54:09;;;;;;;4.07;3.15;;;;;;;19.97;55.76;99425.12;4490730;31;32649;-83
2021/08/29 06:56:55;;;;;;;3.60;2.80;;;;;;;20.23;55.68;99421.97;4477415;31;31796;-83
2021/08/29 06:59:23;;;;;;;4.82;3.10;;;;;;;20.44;55.09;99420.88;4486697;31;33952;-84
2021/08/29 07:01:51;;;;;;;3.62;2.95;;;;;;;20.38;55.56;99420.59;4488061;31;33714;-83
2021/08/29 07:04:19;;;;;;;2.92;2.53;;;;;;;20.47;54.62;99419.78;4495273;31;34210;-84
2021/08/29 07:06:47;;;;;;;5.35;2.72;;;;;;;20.37;54.71;99417.06;4464883;31;33720;-83
2021/08/29 07:09:17;;;;;;;3.53;2.75;;;;;;;20.41;54.79;99420.28;4479551;31;33194;-84
2021/08/29 07:11:46;;;;;;;3.20;2.75;;;;;;;20.39;54.27;99422.28;4489721;31;33642;-84
2021/08/29 07:14:14;;;;;;;3.58;2.12;;;;;;;20.64;53.76;99416.41;4493019;31;33908;-84
2021/08/29 07:16:43;;;;;;;3.95;2.70;;;;;;;21.22;53.40;99413.69;4490985;31;34167;-83
2021/08/29 07:19:11;;;;;;;4.18;2.62;;;;;;;21.30;52.06;99406.72;4464027;31;33435;-85
2021/08/29 07:21:41;;;;;;;5.10;2.12;;;;;;;21.19;53.29;99400.53;4467689;31;33497;-83
2021/08/29 07:24:11;;;;;;;3.35;2.47;;;;;;;21.12;52.70;99407.47;4480381;31;33469;-83
2021/08/29 07:26:54;;;;;;;3.40;2.28;;;;;;;21.21;52.80;99403.91;4468674;31;31974;-83
2021/08/29 07:29:29;;;;;;;3.97;2.20;;;;;;;21.12;51.91;99399.41;4485622;31;33640;-82
2021/08/29 07:32:09;;;;;;;2.12;1.70;;;;;;;21.18;52.00;99395.31;4484365;31;33113;-85
2021/08/29 07:34:37;;;;;;;2.60;2.35;;;;;;;21.26;52.18;99389.22;4474713;31;33249;-83
2021/08/29 07:37:07;;;;;;;2.28;2.05;;;;;;;21.37;51.30;99391.78;4479427;31;33449;-83
2021/08/29 07:39:34;;;;;;;2.10;1.90;;;;;;;21.52;51.56;99390.31;4478009;31;34178;-83
2021/08/29 07:42:02;;;;;;;3.08;2.58;;;;;;;21.76;50.38;99386.25;4479102;31;33602;-83
2021/08/29 07:44:30;;;;;;;2.10;1.90;;;;;;;22.03;49.51;99382.72;4491458;31;33487;-84
2021/08/29 07:47:02;;;;;;;2.22;2.00;;;;;;;21.81;50.21;99373.22;4491311;31;33355;-83
2021/08/29 07:49:39;;;;;;;2.10;1.90;;;;;;;21.71;50.60;99370.59;4478088;31;32848;-83
2021/08/29 07:52:07;;;;;;;2.75;2.00;;;;;;;22.01;50.01;99369.44;4486961;31;33909;-83
2021/08/29 07:54:40;;;;;;;2.83;2.00;;;;;;;22.09;49.27;99371.38;4468926;31;33019;-83
2021/08/29 07:57:10;;;;;;;3.42;1.90;;;;;;;22.04;49.89;99374.50;4484344;31;33664;-83
2021/08/29 07:59:38;;;;;;;1.75;1.62;;;;;;;22.22;49.10;99374.59;4466297;31;35558;-84
2021/08/29 08:02:06;;;;;;;7.18;2.17;;;;;;;22.27;48.62;99376.81;4487455;31;34572;-84
2021/08/29 08:04:43;;;;;;;2.12;1.87;;;;;;;22.06;48.95;99375.19;4477381;31;34596;-85
2021/08/29 08:07:12;;;;;;;2.87;1.80;;;;;;;22.36;47.58;99375.87;4466658;31;33414;-83
2021/08/29 08:09:43;;;;;;;2.95;2.08;;;;;;;22.36;48.20;99368.69;4490438;31;33891;-84
2021/08/29 08:12:13;;;;;;;3.10;2.50;;;;;;;22.65;46.87;99368.44;4489967;31;32860;-83
2021/08/29 08:14:41;;;;;;;2.05;1.85;;;;;;;21.88;48.72;99369.78;4497086;31;33904;-84
2021/08/29 08:17:08;;;;;;;2.92;1.87;;;;;;;22.55;48.61;99370.38;4486701;31;33157;-83
2021/08/29 08:19:37;;;;;;;2.67;2.30;;;;;;;22.16;48.37;99369.78;4464512;32;34472;-83
2021/08/29 08:22:05;;;;;;;3.20;2.40;;;;;;;22.11;47.87;99372.94;4474063;32;33763;-83
2021/08/29 08:24:33;;;;;;;2.62;1.90;;;;;;;22.58;47.13;99359.28;4480292;31;33127;-84
2021/08/29 08:27:17;;;;;;;2.97;2.28;;;;;;;22.39;46.79;99356.75;4477222;31;32899;-83
2021/08/29 08:29:47;;;;;;;1.85;1.60;;;;;;;23.00;46.79;99358.66;4468276;31;34890;-84
2021/08/29 08:32:17;;;;;;;2.10;1.80;;;;;;;23.32;45.45;99354.50;4488904;31;32648;-84
2021/08/29 08:34:47;;;;;;;2.53;2.12;;;;;;;23.20;44.22;99356.59;4488813;31;32588;-84
2021/08/29 08:37:15;;;;;;;2.25;1.85;;;;;;;23.14;44.71;99352.69;4489286;31;34106;-88
2021/08/29 08:39:45;;;;;;;2.22;2.03;;;;;;;23.16;45.56;99345.28;4472716;32;33348;-86
2021/08/29 08:42:14;;;;;;;2.78;1.83;;;;;;;23.39;44.30;99340.22;4492251;31;35051;-85
2021/08/29 08:44:48;;;;;;;2.12;1.90;;;;;;;23.30;44.23;99349.25;4469483;31;34051;-85
2021/08/29 08:47:19;;;;;;;2.12;1.92;;;;;;;23.96;44.58;99347.72;4472988;32;33524;-84
2021/08/29 08:50:02;;;;;;;2.20;1.83;;;;;;;23.75;44.27;99354.41;4463620;31;33053;-85
2021/08/29 08:52:45;;;;;;;1.70;1.37;;;;;;;23.74;43.31;99343.78;4492291;31;34547;-85
2021/08/29 08:55:17;;;;;;;2.25;1.58;;;;;;;23.82;42.49;99340.28;4480813;32;34526;-86
2021/08/29 08:57:58;;;;;;;1.75;1.48;;;;;;;24.13;42.21;99338.69;4474344;32;32855;-86
2021/08/29 09:00:27;;;;;;;2.28;1.50;;;;;;;24.02;42.89;99336.28;4459756;32;33407;-86
2021/08/29 09:02:59;;;;;;;1.87;1.25;;;;;;;23.87;43.50;99343.31;4460541;32;33071;-86
2021/08/29 09:05:30;;;;;;;2.87;2.00;;;;;;;24.31;42.29;99330.47;4485520;32;34509;-86
2021/08/29 09:08:01;;;;;;;1.30;1.20;;;;;;;24.37;42.31;99329.81;4485795;32;33544;-86
2021/08/29 09:10:30;;;;;;;1.52;1.30;;;;;;;24.30;43.78;99328.75;4472391;32;33921;-85
2021/08/29 09:13:02;;;;;;;1.65;1.42;;;;;;;24.38;41.47;99330.66;4480485;31;33964;-85
2021/08/29 09:15:31;;;;;;;1.60;1.33;;;;;;;24.45;42.23;99326.28;4487523;31;32858;-86
2021/08/29 09:18:00;;;;;;;2.20;1.27;;;;;;;24.53;40.98;99328.97;4473830;31;32858;-86
2021/08/29 09:20:36;;;;;;;1.73;1.30;;;;;;;24.40;40.43;99323.22;4472803;32;34017;-86
2021/08/29 09:23:06;;;;;;;4.12;1.87;;;;;;;24.36;41.85;99321.88;4485512;32;33638;-86
2021/08/29 09:25:43;;;;;;;1.85;1.48;;;;;;;24.53;40.90;99323.59;4485237;32;33866;-86
2021/08/29 09:28:14;;;;;;;1.33;1.20;;;;;;;25.05;39.42;99317.81;4472584;32;33403;-86
2021/08/29 09:30:45;;;;;;;1.45;1.33;;;;;;;25.16;39.22;99320.22;4472112;32;32878;-86
2021/08/29 09:33:15;;;;;;;5.20;1.65;;;;;;;25.37;39.36;99318.78;4485662;32;34791;-86
2021/08/29 09:35:43;;;;;;;1.17;1.08;;;;;;;25.20;39.35;99310.72;4471987;32;33344;-86
2021/08/29 09:38:39;;;;;;;1.85;1.20;;;;;;;25.56;38.61;99315.69;4485829;32;33363;-86
2021/08/29 09:41:25;;;;;;;2.17;1.50;;;;;;;25.45;38.59;99310.69;4472586;32;34401;-87
2021/08/29 09:44:04;;;;;;;1.60;1.23;;;;;;;25.52;38.55;99308.94;4485322;32;33970;-86
2021/08/29 09:46:32;;;;;;;1.70;1.40;;;;;;;25.40;38.08;99308.50;4485330;32;33587;-86
2021/08/29 09:49:07;;;;;;;1.62;1.42;;;;;;;25.50;38.47;99305.59;4460969;32;33535;-86
2021/08/29 09:51:46;;;;;;;1.58;1.40;;;;;;;25.34;37.32;99313.72;4472472;32;33910;-86
2021/08/29 09:54:47;;;;;;;1.73;1.00;;;;;;;25.18;39.28;99301.13;4472247;32;33649;-86
2021/08/29 09:57:19;;;;;;;1.23;1.02;;;;;;;25.59;37.73;99303.66;4492459;31;33881;-86
2021/08/29 09:59:49;;;;;;;2.80;1.10;;;;;;;25.85;36.37;99303.41;4487253;31;32821;-86
2021/08/29 10:02:19;;;;;;;1.58;0.95;;;;;;;26.20;35.86;99289.31;4502265;31;34020;-86
2021/08/29 10:04:47;;;;;;;1.85;0.73;;;;;;;25.85;37.04;99292.59;4487830;31;34719;-86
2021/08/29 10:07:17;;;;;;;1.40;0.80;;;;;;;25.53;36.90;99292.53;4501208;31;34278;-86
2021/08/29 10:09:46;;;;;;;2.95;1.15;;;;;;;25.38;37.06;99297.00;4488017;31;33011;-86
2021/08/29 10:12:15;;;;;;;0.77;0.77;;;;;;;25.05;38.27;99293.50;4488412;31;33659;-86
2021/08/29 10:14:44;;;;;;;3.20;1.00;;;;;;;25.29;37.70;99288.06;4487579;31;34475;-87
2021/08/29 10:17:15;;;;;;;1.15;1.05;;;;;;;24.85;37.76;99300.31;4488592;31;34044;-86
2021/08/29 10:19:47;;;;;;;4.10;1.37;;;;;;;24.87;37.46;99291.00;4487908;31;32358;-85
2021/08/29 10:22:28;;;;;;;5.30;0.82;;;;;;;24.74;37.34;99294.25;4500880;31;33913;-85
2021/08/29 10:24:57;;;;;;;0.75;0.75;;;;;;;24.00;39.08;99300.56;4500682;31;34828;-85
2021/08/29 10:27:25;;;;;;;1.10;0.88;;;;;;;24.33;38.27;99301.44;4487876;31;34568;-85
2021/08/29 10:30:02;;;;;;;1.00;0.90;;;;;;;24.01;38.87;99296.84;4476401;31;32379;-85
2021/08/29 10:32:44;;;;;;;1.62;0.82;;;;;;;24.04;38.90;99301.91;4488318;31;32459;-85
2021/08/29 10:35:17;;;;;;;4.62;0.98;;;;;;;24.30;38.26;99280.19;4501097;31;34787;-85
2021/08/29 10:37:47;;;;;;;1.85;0.60;;;;;;;24.09;39.21;99288.78;4491652;31;34787;-85
2021/08/29 10:40:22;;;;;;;1.37;0.80;;;;;;;23.92;38.68;99297.81;4490652;31;32306;-85
2021/08/29 10:42:52;;;;;;;0.80;0.80;;;;;;;23.90;38.60;99289.91;4493505;31;33939;-85
2021/08/29 10:45:27;;;;;;;1.00;0.85;;;;;;;23.70;38.02;99286.66;4478190;31;34521;-85
2021/08/29 10:48:02;;;;;;;1.48;1.02;;;;;;;23.97;38.82;99282.84;4488827;31;32754;-85
2021/08/29 10:50:39;;;;;;;1.00;0.90;;;;;;;23.78;40.28;99283.13;4491339;31;33068;-85
2021/08/29 10:53:30;;;;;;;1.75;0.70;;;;;;;24.13;37.84;99279.34;4477625;31;34002;-85
2021/08/29 10:56:34;;;;;;;0.90;0.80;;;;;;;23.71;38.10;99280.25;4463095;31;35721;-84
2021/08/29 10:59:09;;;;;;;1.48;0.75;;;;;;;23.84;38.02;99284.34;4469618;31;33903;-84
2021/08/29 11:01:40;;;;;;;1.15;0.95;;;;;;;23.99;38.32;99283.53;4491027;31;33024;-83
2021/08/29 11:04:19;;;;;;;1.17;0.70;;;;;;;23.71;38.73;99301.81;4477479;31;33367;-84
2021/08/29 11:06:57;;;;;;;2.45;0.82;;;;;;;23.12;41.83;99291.91;4495435;31;33984;-83
2021/08/29 11:09:37;;;;;;;7.47;1.40;;;;;;;21.59;49.93;99336.81;4474858;31;33246;-82
2021/08/29 11:12:06;;;;;;;4.82;1.62;;;;;;;21.21;56.70;99344.00;4490552;31;33799;-82
2021/08/29 11:14:51;;;;;;;1.55;1.08;;;;;;;20.80;57.17;99338.03;4492581;31;33912;-82
2021/08/29 11:17:24;;;;;;;4.03;1.00;;;;;;;19.79;59.36;99341.03;4474073;32;33401;-81
2021/08/29 11:19:55;;;;;;;1.83;1.20;;;;;;;19.02;62.29;99314.75;4477057;31;34478;-81
2021/08/29 11:22:25;;;;;;;;;;;;;;;18.97;63.29;99336.53;4491611;31;32627;-81
2021/08/29 11:24:59;;;;;;;0.90;0.70;;;;;;;19.34;59.82;99331.53;4481092;31;33478;-82
2021/08/29 11:27:33;;;;;;;1.62;0.82;;;;;;;19.32;58.50;99338.00;4480836;31;33884;-81
2021/08/29 11:30:09;;;;;;;1.73;1.08;;;;;;;19.30;60.43;99342.66;4493807;31;33953;-81
2021/08/29 11:32:42;;;;;;;2.15;0.70;;;;;;;18.34;61.72;99339.16;4490183;31;33038;-81
2021/08/29 11:35:18;;;;;;;1.30;0.70;;;;;;;18.74;59.12;99338.50;4478630;31;34695;-81
2021/08/29 11:38:02;;;;;;;0.98;0.77;;;;;;;19.06;55.25;99330.41;4468251;31;33494;-81
2021/08/29 11:40:45;;;;;;;1.23;0.80;;;;;;;18.52;59.08;99336.78;4494552;31;33467;-81
2021/08/29 11:43:28;;;;;;;3.35;0.77;;;;;;;18.35;62.25;99329.31;4488766;31;33035;-81
2021/08/29 11:46:30;;;;;;;2.40;1.00;;;;;;;18.72;59.64;99323.59;4497526;31;33608;-81
2021/08/29 11:49:03;;;;;;;3.47;0.90;;;;;;;18.32;62.52;99340.25;4489036;31;33810;-81
2021/08/29 11:51:36;;;;;;;1.20;1.08;;;;;;;18.17;62.34;99340.53;4478722;31;34016;-81
2021/08/29 11:54:06;;;;;;;1.37;0.77;;;;;;;18.03;60.87;99335.47;4489013;31;33456;-81